| time (UTC) | temp C | wind direction | speed KPH | gust KPH | rain 1hr cm | rain 24hr cm | rain mn cm | humidity % | barometer mb |
| 20260510070055 | 19 | 10 | 1.6 | 3.2 | 0.00 | 0.00 | 0.00 | 99 | 1014.4 |
| 20260510065551 | 19 | 12 | 1.6 | 1.6 | 0.00 | 0.00 | 0.00 | 99 | 1014.4 |
| 20260510065047 | 19 | 10 | 0.0 | 0.0 | 0.00 | 0.00 | 0.00 | 99 | 1014.6 |
| 20260510064543 | 19 | 11 | 1.6 | 3.2 | 0.00 | 0.00 | 0.00 | 99 | 1014.7 |
| 20260510064040 | 19 | 16 | 3.2 | 3.2 | 0.00 | 0.00 | 0.00 | 99 | 1014.6 |
| 20260510063537 | 19 | 15 | 1.6 | 3.2 | 0.00 | 0.00 | 0.00 | 99 | 1014.5 |
| 20260510063034 | 19 | 16 | 3.2 | 9.7 | 0.00 | 0.00 | 0.00 | 99 | 1014.6 |
| 20260510062530 | 19 | 26 | 1.6 | 3.2 | 0.00 | 0.00 | 0.00 | 99 | 1014.5 |
| 20260510062025 | 19 | 20 | 1.6 | 1.6 | 0.00 | 0.00 | 0.00 | 99 | 1014.6 |
| 20260510061522 | 19 | 3 | 3.2 | 4.8 | 0.00 | 0.00 | 0.00 | 99 | 1014.8 |
| 20260510061019 | 19 | 16 | 0.0 | 1.6 | 0.00 | 0.00 | 0.00 | 99 | 1014.6 |
| 20260510060515 | 19 | 13 | 1.6 | 1.6 | 0.00 | 0.00 | 0.00 | 99 | 1014.7 |
| 20260510060011 | 19 | 13 | 0.0 | 0.0 | 0.00 | 0.00 | 0.00 | 99 | 1014.6 |
| 20260510055507 | 19 | 17 | 1.6 | 3.2 | 0.00 | 0.00 | 0.00 | 99 | 1015.1 |
| 20260510055006 | 19 | 23 | 3.2 | 3.2 | 0.00 | 0.00 | 0.00 | 99 | 1014.8 |
| 20260510054501 | 19 | 36 | 0.0 | 0.0 | 0.00 | 0.00 | 0.00 | 99 | 1014.5 |
| 20260510053956 | 19 | 37 | 1.6 | 1.6 | 0.00 | 0.00 | 0.00 | 99 | 1014.6 |
| 20260510053451 | 18 | 6 | 3.2 | 3.2 | 0.00 | 0.00 | 0.00 | 99 | 1014.9 |
| 20260510052948 | 18 | 12 | 3.2 | 3.2 | 0.00 | 0.00 | 0.00 | 99 | 1014.8 |
| 20260510052444 | 18 | 21 | 3.2 | 3.2 | 0.00 | 0.00 | 0.00 | 99 | 1014.6 |
| 20260510051940 | 18 | 19 | 3.2 | 3.2 | 0.00 | 0.00 | 0.00 | 99 | 1014.5 |
| 20260510051437 | 18 | 129 | 0.0 | 0.0 | 0.00 | 0.00 | 0.00 | 99 | 1014.3 |
| 20260510050933 | 18 | 130 | 0.0 | 0.0 | 0.00 | 0.00 | 0.00 | 99 | 1014.4 |
| 20260510050430 | 18 | 131 | 3.2 | 3.2 | 0.00 | 0.00 | 0.00 | 99 | 1014.6 |
| 20260510045927 | 18 | 19 | 1.6 | 3.2 | 0.00 | 4.67 | 4.67 | 99 | 1014.4 |
| 20260510045424 | 19 | 18 | 0.0 | 0.0 | 0.00 | 4.67 | 4.67 | 99 | 1014.6 |
| 20260510044921 | 19 | 18 | 0.0 | 1.6 | 0.00 | 4.67 | 4.67 | 99 | 1014.8 |
| 20260510044418 | 19 | 18 | 1.6 | 3.2 | 0.00 | 4.67 | 4.67 | 99 | 1015.0 |
| 20260510043915 | 19 | 9 | 3.2 | 4.8 | 0.00 | 4.67 | 4.67 | 99 | 1014.8 |
| 20260510043411 | 19 | 9 | 1.6 | 1.6 | 0.00 | 4.67 | 4.67 | 98 | 1014.8 |
| 20260510042909 | 19 | 8 | 0.0 | 1.6 | 0.00 | 4.67 | 4.67 | 98 | 1014.8 |
| 20260510042404 | 19 | 7 | 1.6 | 1.6 | 0.00 | 4.67 | 4.67 | 98 | 1014.9 |
| 20260510041900 | 19 | 4 | 1.6 | 3.2 | 0.00 | 4.67 | 4.67 | 98 | 1015.2 |
| 20260510041357 | 19 | 0 | 1.6 | 1.6 | 0.00 | 4.67 | 4.67 | 98 | 1015.2 |
| 20260510040855 | 20 | 101 | 1.6 | 1.6 | 0.00 | 4.67 | 4.67 | 98 | 1014.9 |
| 20260510040352 | 20 | 102 | 0.0 | 1.6 | 0.00 | 4.67 | 4.67 | 98 | 1014.7 |
| 20260510035847 | 20 | 106 | 1.6 | 1.6 | 0.00 | 4.67 | 4.67 | 98 | 1014.6 |
| 20260510035343 | 20 | 169 | 3.2 | 4.8 | 0.00 | 4.67 | 4.67 | 98 | 1014.5 |
| 20260510034839 | 20 | 188 | 8.0 | 11.3 | 0.00 | 4.67 | 4.67 | 98 | 1014.6 |
| 20260510034337 | 20 | 186 | 4.8 | 9.7 | 0.00 | 4.67 | 4.67 | 98 | 1014.4 |
| 20260510033833 | 20 | 181 | 6.4 | 9.7 | 0.00 | 4.67 | 4.67 | 98 | 1014.5 |
| 20260510033330 | 20 | 172 | 9.7 | 12.9 | 0.00 | 4.67 | 4.67 | 98 | 1014.7 |
| 20260510032827 | 20 | 173 | 6.4 | 9.7 | 0.00 | 4.67 | 4.67 | 98 | 1014.5 |
| 20260510032324 | 20 | 180 | 6.4 | 9.7 | 0.00 | 4.67 | 4.67 | 98 | 1014.6 |
| 20260510031819 | 20 | 178 | 6.4 | 11.3 | 0.00 | 4.67 | 4.67 | 98 | 1014.6 |
| 20260510031315 | 20 | 174 | 9.7 | 11.3 | 0.00 | 4.67 | 4.67 | 98 | 1014.6 |
| 20260510030809 | 20 | 166 | 9.7 | 16.1 | 0.00 | 4.67 | 4.67 | 98 | 1014.4 |
| 20260510030306 | 20 | 162 | 6.4 | 12.9 | 0.00 | 4.67 | 4.67 | 98 | 1014.5 |
| 20260510025803 | 20 | 189 | 9.7 | 11.3 | 0.00 | 4.67 | 4.67 | 98 | 1014.9 |
| 20260510025301 | 20 | 171 | 6.4 | 11.3 | 0.00 | 4.67 | 4.67 | 99 | 1014.9 |
| 20260510024757 | 20 | 171 | 9.7 | 12.9 | 0.00 | 4.67 | 4.67 | 99 | 1014.6 |
| 20260510024254 | 20 | 186 | 9.7 | 12.9 | 0.00 | 4.67 | 4.67 | 99 | 1014.7 |
| 20260510023750 | 20 | 167 | 6.4 | 9.7 | 0.00 | 4.67 | 4.67 | 99 | 1014.7 |
| 20260510023247 | 20 | 164 | 8.0 | 14.5 | 0.00 | 4.67 | 4.67 | 99 | 1014.6 |
| 20260510022743 | 20 | 156 | 6.4 | 9.7 | 0.00 | 4.67 | 4.67 | 99 | 1014.8 |
| 20260510022243 | 20 | 185 | 9.7 | 11.3 | 0.00 | 4.67 | 4.67 | 99 | 1014.5 |
| 20260510021743 | 19 | 206 | 6.4 | 14.5 | 0.00 | 4.67 | 4.67 | 99 | 1014.4 |
| 20260510021241 | 20 | 187 | 8.0 | 11.3 | 0.00 | 4.67 | 4.67 | 99 | 1014.5 |
| 20260510020736 | 20 | 187 | 6.4 | 6.4 | 0.00 | 4.67 | 4.67 | 99 | 1014.7 |
| 20260510020231 | 20 | 199 | 6.4 | 9.7 | 0.00 | 4.67 | 4.67 | 99 | 1014.8 |
| 20260510015727 | 20 | 209 | 3.2 | 4.8 | 0.00 | 4.67 | 4.67 | 99 | 1014.7 |
| 20260510015224 | 20 | 253 | 1.6 | 4.8 | 0.00 | 4.67 | 4.67 | 99 | 1014.8 |
| 20260510014719 | 20 | 14 | 0.0 | 0.0 | 0.00 | 4.67 | 4.67 | 99 | 1014.9 |
| 20260510014217 | 20 | 14 | 0.0 | 1.6 | 0.00 | 4.67 | 4.67 | 99 | 1014.9 |
| 20260510013712 | 20 | 16 | 3.2 | 3.2 | 0.00 | 4.67 | 4.67 | 99 | 1014.9 |
| 20260510013208 | 20 | 1 | 0.0 | 1.6 | 0.00 | 4.67 | 4.67 | 99 | 1014.5 |
| 20260510012708 | 20 | 44 | 1.6 | 1.6 | 0.00 | 4.67 | 4.67 | 99 | 1014.2 |
| 20260510012203 | 20 | 173 | 3.2 | 4.8 | 0.00 | 4.67 | 4.67 | 99 | 1014.4 |
| 20260510011658 | 20 | 185 | 4.8 | 4.8 | 0.00 | 4.67 | 4.67 | 99 | 1014.6 |
| 20260510011154 | 20 | 181 | 4.8 | 4.8 | 0.00 | 4.67 | 4.67 | 99 | 1014.6 |
| 20260510010650 | 20 | 181 | 4.8 | 4.8 | 0.00 | 4.67 | 4.67 | 99 | 1014.7 |
| 20260510010148 | 20 | 184 | 3.2 | 3.2 | 0.00 | 4.67 | 4.67 | 99 | 1014.7 |
| 20260510005643 | 20 | 185 | 0.0 | 0.0 | 0.00 | 4.67 | 4.67 | 99 | 1014.6 |
| 20260510005140 | 20 | 186 | 3.2 | 4.8 | 0.00 | 4.67 | 4.67 | 99 | 1015.0 |
| 20260510004639 | 20 | 173 | 1.6 | 4.8 | 0.00 | 4.67 | 4.67 | 98 | 1014.7 |
| 20260510004137 | 20 | 174 | 3.2 | 3.2 | 0.00 | 4.67 | 4.67 | 99 | 1014.6 |
| 20260510003633 | 20 | 190 | 3.2 | 4.8 | 0.00 | 4.67 | 4.67 | 98 | 1014.4 |
| 20260510003129 | 20 | 134 | 0.0 | 0.0 | 0.00 | 4.67 | 4.67 | 98 | 1014.6 |
| 20260510002629 | 20 | 134 | 0.0 | 1.6 | 0.00 | 4.67 | 4.67 | 98 | 1014.3 |
| 20260510002126 | 20 | 134 | 1.6 | 1.6 | 0.00 | 4.67 | 4.67 | 98 | 1014.3 |
| 20260510001623 | 20 | 13 | 0.0 | 1.6 | 0.00 | 4.67 | 4.67 | 98 | 1014.3 |
| 20260510001122 | 20 | 17 | 1.6 | 1.6 | 0.00 | 4.67 | 4.67 | 98 | 1014.2 |
| 20260510000622 | 20 | 23 | 0.0 | 3.2 | 0.00 | 4.67 | 4.67 | 98 | 1014.2 |
| 20260510000120 | 20 | 7 | 0.0 | 1.6 | 0.00 | 4.67 | 4.67 | 98 | 1014.1 |
| 20260509235616 | 20 | 7 | 0.0 | 1.6 | 0.00 | 4.67 | 4.67 | 98 | 1014.1 |
| 20260509235113 | 20 | 20 | 0.0 | 1.6 | 0.00 | 4.67 | 4.67 | 98 | 1013.8 |
| 20260509234608 | 20 | 180 | 0.0 | 0.0 | 0.00 | 4.67 | 4.67 | 99 | 1013.5 |
| 20260509234107 | 20 | 180 | 0.0 | 0.0 | 0.00 | 4.67 | 4.67 | 99 | 1013.5 |
| 20260509233604 | 20 | 180 | 1.6 | 3.2 | 0.00 | 4.67 | 4.67 | 99 | 1013.6 |
| 20260509233101 | 20 | 179 | 1.6 | 1.6 | 0.00 | 4.67 | 4.67 | 99 | 1013.4 |
| 20260509232557 | 20 | 180 | 1.6 | 3.2 | 0.00 | 4.67 | 4.67 | 99 | 1013.4 |
| 20260509232054 | 20 | 116 | 3.2 | 9.7 | 0.00 | 4.67 | 4.67 | 99 | 1013.2 |
| 20260509231551 | 20 | 181 | 8.0 | 12.9 | 0.00 | 4.67 | 4.67 | 99 | 1013.3 |
| 20260509231049 | 20 | 248 | 1.6 | 4.8 | 0.00 | 4.67 | 4.67 | 99 | 1012.9 |
| 20260509230545 | 20 | 189 | 4.8 | 9.7 | 0.00 | 4.67 | 4.67 | 99 | 1012.8 |
| 20260509230042 | 20 | 7 | 4.8 | 4.8 | 0.00 | 4.67 | 4.67 | 99 | 1012.6 |
| 20260509225537 | 20 | 207 | 1.6 | 4.8 | 0.00 | 4.67 | 4.67 | 99 | 1012.6 |
| 20260509225033 | 20 | 42 | 1.6 | 3.2 | 0.00 | 4.67 | 4.67 | 99 | 1012.5 |
| 20260509224529 | 20 | 128 | 4.8 | 4.8 | 0.00 | 4.67 | 4.67 | 99 | 1012.9 |
| 20260509224026 | 20 | 354 | 3.2 | 4.8 | 0.00 | 4.67 | 4.67 | 99 | 1012.8 |
| 20260509223523 | 20 | 0 | 3.2 | 3.2 | 0.00 | 4.67 | 4.67 | 99 | 1012.9 |
| 20260509223021 | 20 | 51 | 1.6 | 3.2 | 0.18 | 4.67 | 4.67 | 99 | 1013.1 |
| 20260509222516 | 20 | 12 | 0.0 | 1.6 | 0.18 | 4.67 | 4.67 | 99 | 1012.9 |
| 20260509222012 | 19 | 65 | 1.6 | 1.6 | 0.00 | 4.65 | 4.65 | 99 | 1013.3 |
| 20260509221508 | 19 | 266 | 3.2 | 9.7 | 0.00 | 4.65 | 4.65 | 99 | 1013.1 |
| 20260509221004 | 19 | 49 | 0.0 | 1.6 | 0.13 | 4.65 | 4.65 | 99 | 1013.2 |
| 20260509220501 | 19 | 154 | 6.4 | 9.7 | 0.13 | 4.65 | 4.65 | 99 | 1013.1 |
| 20260509215956 | 19 | 187 | 3.2 | 3.2 | 0.18 | 4.62 | 4.62 | 99 | 1013.2 |
| 20260509215452 | 19 | 188 | 3.2 | 4.8 | 0.30 | 4.62 | 4.62 | 99 | 1013.3 |
| 20260509214950 | 19 | 182 | 0.0 | 3.2 | 0.13 | 4.60 | 4.60 | 99 | 1013.5 |
| 20260509214447 | 19 | 181 | 1.6 | 3.2 | 0.18 | 4.57 | 4.57 | 99 | 1013.9 |
| 20260509213943 | 19 | 21 | 1.6 | 1.6 | 0.30 | 4.55 | 4.55 | 99 | 1013.9 |
| 20260509213439 | 18 | 56 | 0.0 | 1.6 | 0.30 | 4.52 | 4.52 | 99 | 1013.7 |
| 20260509212937 | 18 | 218 | 1.6 | 9.7 | 0.43 | 4.50 | 4.50 | 99 | 1013.3 |
| 20260509212434 | 18 | 200 | 0.0 | 3.2 | 0.48 | 4.45 | 4.45 | 99 | 1013.4 |
| 20260509211930 | 18 | 246 | 4.8 | 4.8 | 0.48 | 4.42 | 4.42 | 99 | 1013.3 |
| 20260509211426 | 18 | 134 | 1.6 | 4.8 | 0.43 | 4.37 | 4.37 | 99 | 1013.2 |
| 20260509210923 | 18 | 203 | 4.8 | 9.7 | 0.30 | 4.32 | 4.32 | 99 | 1013.2 |
| 20260509210420 | 18 | 12 | 0.0 | 4.8 | 0.30 | 4.29 | 4.29 | 99 | 1012.9 |
| 20260509205915 | 18 | 117 | 6.4 | 6.4 | 0.43 | 4.27 | 4.27 | 99 | 1013.2 |
| 20260509205415 | 19 | 4 | 1.6 | 4.8 | 0.79 | 4.24 | 4.24 | 99 | 1013.6 |
| 20260509204911 | 19 | 197 | 4.8 | 4.8 | 0.79 | 4.19 | 4.19 | 99 | 1014.1 |
| 20260509204408 | 19 | 23 | 3.2 | 3.2 | 0.48 | 4.11 | 4.11 | 99 | 1014.1 |
| 20260509203904 | 19 | 178 | 1.6 | 9.7 | 0.48 | 4.06 | 4.06 | 99 | 1014.5 |
| 20260509203400 | 19 | 201 | 3.2 | 4.8 | 0.89 | 4.04 | 4.04 | 99 | 1014.5 |
| 20260509202858 | 19 | 357 | 1.6 | 3.2 | 1.55 | 3.96 | 3.96 | 99 | 1014.1 |
| 20260509202353 | 19 | 34 | 1.6 | 1.6 | 1.55 | 3.86 | 3.86 | 98 | 1013.7 |
| 20260509201849 | 19 | 22 | 0.0 | 1.6 | 0.89 | 3.68 | 3.68 | 99 | 1014.2 |
| 20260509201345 | 19 | 192 | 8.0 | 9.7 | 0.71 | 3.61 | 3.61 | 98 | 1014.7 |
| 20260509200842 | 18 | 189 | 4.8 | 6.4 | 0.48 | 3.51 | 3.51 | 98 | 1014.5 |
| 20260509200336 | 18 | 29 | 0.0 | 4.8 | 1.27 | 3.48 | 3.48 | 98 | 1014.1 |
| 20260509195834 | 18 | 12 | 3.2 | 4.8 | 1.19 | 3.43 | 3.43 | 98 | 1014.1 |
| 20260509195334 | 18 | 183 | 3.2 | 6.4 | 0.48 | 3.25 | 3.25 | 98 | 1014.3 |
| 20260509194833 | 18 | 266 | 3.2 | 4.8 | 0.61 | 3.23 | 3.23 | 98 | 1014.8 |
| 20260509194330 | 18 | 334 | 3.2 | 6.4 | 1.37 | 3.17 | 3.17 | 98 | 1014.5 |
| 20260509193827 | 18 | 209 | 3.2 | 4.8 | 1.68 | 3.12 | 3.12 | 98 | 1014.2 |
| 20260509193327 | 18 | 36 | 1.6 | 4.8 | 1.07 | 2.92 | 2.92 | 98 | 1014.0 |
| 20260509192823 | 19 | 3 | 8.0 | 12.9 | 2.16 | 2.84 | 2.84 | 98 | 1014.0 |
| 20260509192319 | 19 | 355 | 1.6 | 6.4 | 5.64 | 2.69 | 2.69 | 98 | 1013.7 |
| 20260509191814 | 19 | 352 | 3.2 | 3.2 | 4.75 | 2.36 | 2.36 | 98 | 1013.3 |
| 20260509191311 | 19 | 351 | 3.2 | 4.8 | 1.19 | 1.73 | 1.73 | 97 | 1013.8 |
| 20260509190806 | 19 | 34 | 1.6 | 4.8 | 0.18 | 1.55 | 1.55 | 97 | 1013.5 |
| 20260509190304 | 19 | 139 | 3.2 | 14.5 | 0.00 | 1.52 | 1.52 | 97 | 1013.6 |
| 20260509185801 | 19 | 185 | 6.4 | 11.3 | 0.18 | 1.52 | 1.52 | 98 | 1013.5 |
| 20260509185257 | 19 | 223 | 4.8 | 16.1 | 0.18 | 1.52 | 1.52 | 98 | 1013.4 |
| 20260509184755 | 19 | 45 | 3.2 | 12.9 | 0.00 | 1.50 | 1.50 | 98 | 1013.6 |
| 20260509184252 | 19 | 169 | 8.0 | 12.9 | 0.00 | 1.50 | 1.50 | 98 | 1014.3 |
| 20260509183748 | 19 | 175 | 9.7 | 14.5 | 0.00 | 1.50 | 1.50 | 98 | 1014.2 |
| 20260509183244 | 19 | 190 | 9.7 | 16.1 | 0.00 | 1.50 | 1.50 | 98 | 1014.2 |
| 20260509182739 | 19 | 174 | 9.7 | 20.9 | 0.00 | 1.50 | 1.50 | 98 | 1014.2 |
| 20260509182237 | 19 | 44 | 6.4 | 11.3 | 0.00 | 1.50 | 1.50 | 98 | 1014.5 |
| 20260509181734 | 19 | 161 | 3.2 | 6.4 | 0.13 | 1.50 | 1.50 | 98 | 1014.7 |
| 20260509181232 | 19 | 190 | 4.8 | 9.7 | 0.13 | 1.50 | 1.50 | 98 | 1014.6 |
| 20260509180729 | 19 | 196 | 6.4 | 9.7 | 0.00 | 1.47 | 1.47 | 98 | 1014.8 |
| 20260509180225 | 19 | 181 | 4.8 | 6.4 | 0.00 | 1.47 | 1.47 | 98 | 1014.6 |
| 20260509175721 | 19 | 167 | 1.6 | 3.2 | 0.00 | 1.47 | 1.47 | 98 | 1014.3 |
| 20260509175218 | 19 | 186 | 3.2 | 4.8 | 0.00 | 1.47 | 1.47 | 98 | 1014.7 |
| 20260509174713 | 19 | 67 | 0.0 | 3.2 | 0.00 | 1.47 | 1.47 | 98 | 1014.5 |
| 20260509174209 | 19 | 177 | 6.4 | 9.7 | 0.48 | 1.47 | 1.47 | 97 | 1014.3 |
| 20260509173705 | 19 | 114 | 1.6 | 4.8 | 2.16 | 1.47 | 1.47 | 97 | 1013.9 |
| 20260509173201 | 19 | 235 | 1.6 | 3.2 | 1.27 | 1.32 | 1.32 | 97 | 1013.8 |
| 20260509172657 | 19 | 181 | 0.0 | 0.0 | 0.00 | 1.12 | 1.12 | 97 | 1014.1 |
| 20260509172154 | 19 | 199 | 0.0 | 4.8 | 0.00 | 1.12 | 1.12 | 97 | 1014.1 |
| 20260509171649 | 19 | 231 | 3.2 | 9.7 | 0.00 | 1.12 | 1.12 | 97 | 1014.3 |
| 20260509171146 | 19 | 9 | 4.8 | 4.8 | 0.00 | 1.12 | 1.12 | 97 | 1014.2 |
| 20260509170643 | 19 | 185 | 4.8 | 4.8 | 0.00 | 1.12 | 1.12 | 97 | 1014.4 |
| 20260509170139 | 19 | 0 | 0.0 | 1.6 | 0.00 | 1.12 | 1.12 | 96 | 1014.1 |
| 20260509165637 | 19 | 8 | 1.6 | 3.2 | 0.00 | 1.12 | 1.12 | 96 | 1014.1 |
| 20260509165133 | 19 | 49 | 1.6 | 4.8 | 0.00 | 1.12 | 1.12 | 96 | 1014.4 |
| 20260509164629 | 19 | 103 | 3.2 | 6.4 | 0.00 | 1.12 | 1.12 | 96 | 1014.2 |
| 20260509164125 | 19 | 5 | 3.2 | 3.2 | 0.00 | 1.12 | 1.12 | 97 | 1014.2 |
| 20260509163623 | 19 | 68 | 3.2 | 4.8 | 0.00 | 1.12 | 1.12 | 97 | 1014.6 |
| 20260509163118 | 20 | 27 | 0.0 | 1.6 | 0.00 | 1.12 | 1.12 | 97 | 1014.5 |
| 20260509162616 | 19 | 66 | 0.0 | 3.2 | 0.00 | 1.12 | 1.12 | 97 | 1014.4 |
| 20260509162112 | 19 | 216 | 1.6 | 4.8 | 0.00 | 1.12 | 1.12 | 97 | 1014.4 |
| 20260509161608 | 20 | 214 | 1.6 | 3.2 | 0.00 | 1.12 | 1.12 | 97 | 1014.6 |
| 20260509161108 | 19 | 49 | 0.0 | 1.6 | 0.00 | 1.12 | 1.12 | 98 | 1014.5 |
| 20260509160605 | 19 | 49 | 1.6 | 3.2 | 0.00 | 1.12 | 1.12 | 98 | 1014.8 |
| 20260509160100 | 19 | 4 | 0.0 | 1.6 | 0.00 | 1.12 | 1.12 | 98 | 1014.9 |
| 20260509155556 | 19 | 108 | 1.6 | 6.4 | 0.00 | 1.12 | 1.12 | 98 | 1014.9 |
| 20260509155053 | 19 | 205 | 3.2 | 3.2 | 0.00 | 1.12 | 1.12 | 98 | 1015.0 |
| 20260509154549 | 19 | 157 | 3.2 | 6.4 | 0.00 | 1.12 | 1.12 | 98 | 1014.9 |
| 20260509154046 | 19 | 168 | 4.8 | 4.8 | 0.00 | 1.12 | 1.12 | 98 | 1014.8 |
| 20260509153543 | 19 | 163 | 6.4 | 9.7 | 0.00 | 1.12 | 1.12 | 98 | 1014.7 |
| 20260509153040 | 19 | 136 | 1.6 | 1.6 | 0.00 | 1.12 | 1.12 | 98 | 1014.6 |
| 20260509152536 | 19 | 51 | 3.2 | 6.4 | 0.00 | 1.12 | 1.12 | 98 | 1014.4 |
| 20260509152033 | 18 | 49 | 1.6 | 1.6 | 0.00 | 1.12 | 1.12 | 98 | 1014.0 |
| 20260509151529 | 18 | 6 | 3.2 | 6.4 | 0.00 | 1.12 | 1.12 | 98 | 1013.9 |
| 20260509151027 | 18 | 43 | 3.2 | 3.2 | 0.00 | 1.12 | 1.12 | 99 | 1014.1 |
| 20260509150524 | 18 | 175 | 4.8 | 11.3 | 0.00 | 1.12 | 1.12 | 98 | 1014.6 |
| 20260509150023 | 18 | 176 | 3.2 | 9.7 | 0.00 | 1.12 | 1.12 | 99 | 1014.2 |
| 20260509145518 | 18 | 197 | 6.4 | 9.7 | 0.00 | 1.12 | 1.12 | 99 | 1014.5 |
| 20260509145013 | 18 | 333 | 0.0 | 3.2 | 0.00 | 1.12 | 1.12 | 99 | 1014.3 |
| 20260509144511 | 18 | 12 | 3.2 | 6.4 | 0.00 | 1.12 | 1.12 | 99 | 1014.0 |
| 20260509144008 | 18 | 346 | 0.0 | 1.6 | 0.00 | 1.12 | 1.12 | 99 | 1014.1 |
| 20260509143505 | 18 | 15 | 1.6 | 1.6 | 0.00 | 1.12 | 1.12 | 99 | 1013.8 |
| 20260509143003 | 18 | 12 | 0.0 | 1.6 | 0.00 | 1.12 | 1.12 | 99 | 1014.3 |
| 20260509142458 | 18 | 54 | 3.2 | 4.8 | 0.00 | 1.12 | 1.12 | 99 | 1014.0 |
| 20260509141953 | 18 | 75 | 0.0 | 3.2 | 0.00 | 1.12 | 1.12 | 99 | 1014.2 |
| 20260509141450 | 18 | 28 | 1.6 | 3.2 | 0.00 | 1.12 | 1.12 | 99 | 1014.1 |
| 20260509140947 | 18 | 7 | 3.2 | 6.4 | 0.00 | 1.12 | 1.12 | 99 | 1014.2 |
| 20260509140443 | 18 | 20 | 1.6 | 1.6 | 0.00 | 1.12 | 1.12 | 99 | 1014.2 |
| 20260509135942 | 18 | 274 | 3.2 | 4.8 | 0.00 | 1.12 | 1.12 | 99 | 1014.1 |
| 20260509135439 | 18 | 11 | 3.2 | 4.8 | 0.00 | 1.12 | 1.12 | 99 | 1013.9 |
| 20260509134936 | 18 | 8 | 0.0 | 1.6 | 0.00 | 1.12 | 1.12 | 99 | 1014.1 |
| 20260509134433 | 18 | 12 | 1.6 | 1.6 | 0.00 | 1.12 | 1.12 | 99 | 1014.0 |
| 20260509133931 | 18 | 353 | 3.2 | 6.4 | 0.00 | 1.12 | 1.12 | 99 | 1013.9 |
| 20260509133427 | 18 | 167 | 4.8 | 6.4 | 0.00 | 1.12 | 1.12 | 99 | 1013.9 |
| 20260509132925 | 18 | 352 | 0.0 | 4.8 | 0.00 | 1.12 | 1.12 | 99 | 1014.0 |
| 20260509132423 | 18 | 351 | 0.0 | 1.6 | 0.00 | 1.12 | 1.12 | 99 | 1013.9 |
| 20260509131920 | 18 | 30 | 0.0 | 4.8 | 0.13 | 1.12 | 1.12 | 99 | 1013.8 |
| 20260509131417 | 18 | 66 | 1.6 | 4.8 | 1.27 | 1.09 | 1.09 | 99 | 1013.8 |
| 20260509130914 | 18 | 11 | 4.8 | 4.8 | 2.59 | 1.09 | 1.09 | 99 | 1013.7 |
| 20260509130409 | 18 | 45 | 3.2 | 4.8 | 1.68 | 0.94 | 0.94 | 99 | 1013.8 |
| 20260509125906 | 18 | 351 | 1.6 | 4.8 | 0.18 | 0.66 | 0.66 | 99 | 1014.2 |
| 20260509125403 | 18 | 30 | 1.6 | 1.6 | 0.18 | 0.66 | 0.66 | 99 | 1013.8 |
| 20260509124859 | 18 | 355 | 4.8 | 4.8 | 0.61 | 0.64 | 0.64 | 99 | 1013.8 |
| 20260509124356 | 18 | 10 | 3.2 | 12.9 | 2.16 | 0.61 | 0.61 | 98 | 1013.9 |
| 20260509123854 | 18 | 10 | 9.7 | 11.3 | 2.77 | 0.53 | 0.53 | 98 | 1014.0 |
| 20260509123351 | 18 | 17 | 4.8 | 12.9 | 0.61 | 0.18 | 0.18 | 98 | 1013.5 |
| 20260509122846 | 18 | 1 | 8.0 | 9.7 | 0.00 | 0.08 | 0.08 | 98 | 1013.7 |
| 20260509122344 | 19 | 25 | 4.8 | 24.1 | 0.00 | 0.08 | 0.08 | 98 | 1013.1 |
| 20260509121840 | 19 | 350 | 11.3 | 20.9 | 0.13 | 0.08 | 0.08 | 98 | 1013.6 |
| 20260509121337 | 19 | 350 | 9.7 | 17.7 | 0.30 | 0.05 | 0.05 | 98 | 1013.0 |
| 20260509120836 | 20 | 353 | 16.1 | 25.7 | 0.30 | 0.05 | 0.05 | 98 | 1013.2 |
| 20260509120333 | 21 | 17 | 17.7 | 22.5 | 0.00 | 0.00 | 0.00 | 99 | 1012.7 |
| 20260509115831 | 21 | 9 | 8.0 | 9.7 | 0.00 | 0.00 | 0.00 | 99 | 1013.2 |
| 20260509115328 | 21 | 354 | 3.2 | 4.8 | 0.00 | 0.00 | 0.00 | 99 | 1012.9 |
| 20260509114826 | 21 | 8 | 3.2 | 3.2 | 0.00 | 0.00 | 0.00 | 99 | 1012.8 |
| 20260509114324 | 21 | 8 | 3.2 | 3.2 | 0.00 | 0.00 | 0.00 | 99 | 1012.8 |
| 20260509113823 | 21 | 7 | 3.2 | 4.8 | 0.00 | 0.00 | 0.00 | 99 | 1013.0 |
| 20260509113320 | 21 | 0 | 3.2 | 3.2 | 0.00 | 0.00 | 0.00 | 99 | 1012.9 |
| 20260509112816 | 21 | 0 | 1.6 | 1.6 | 0.00 | 0.00 | 0.00 | 99 | 1012.9 |
| 20260509112314 | 21 | 2 | 1.6 | 3.2 | 0.00 | 0.00 | 0.00 | 99 | 1012.4 |
| 20260509111811 | 21 | 2 | 1.6 | 3.2 | 0.00 | 0.00 | 0.00 | 99 | 1012.7 |
| 20260509111308 | 21 | 358 | 3.2 | 3.2 | 0.00 | 0.00 | 0.00 | 99 | 1012.7 |
| 20260509110805 | 21 | 4 | 3.2 | 3.2 | 0.00 | 0.00 | 0.00 | 99 | 1012.6 |
| 20260509110301 | 21 | 351 | 4.8 | 4.8 | 0.00 | 0.00 | 0.00 | 99 | 1012.5 |
| 20260509105759 | 21 | 181 | 3.2 | 1.6 | 0.00 | 0.00 | 0.00 | 99 | 1012.1 |
| 20260509105257 | 21 | 181 | 0.0 | 0.0 | 0.00 | 0.00 | 0.00 | 99 | 1011.9 |
| 20260509104753 | 21 | 181 | 1.6 | 1.6 | 0.00 | 0.00 | 0.00 | 99 | 1012.0 |
| 20260509104250 | 21 | 181 | 0.0 | 1.6 | 0.00 | 0.00 | 0.00 | 99 | 1011.8 |
| 20260509103749 | 21 | 181 | 1.6 | 3.2 | 0.00 | 0.00 | 0.00 | 99 | 1011.5 |
| 20260509103245 | 21 | 183 | 4.8 | 4.8 | 0.00 | 0.00 | 0.00 | 99 | 1011.8 |
| 20260509102744 | 21 | 192 | 4.8 | 4.8 | 0.00 | 0.00 | 0.00 | 99 | 1011.5 |
| 20260509102240 | 21 | 154 | 1.6 | 1.6 | 0.00 | 0.00 | 0.00 | 99 | 1011.8 |
| 20260509101737 | 21 | 153 | 0.0 | 0.0 | 0.00 | 0.00 | 0.00 | 99 | 1011.9 |
| 20260509101233 | 21 | 153 | 0.0 | 0.0 | 0.00 | 0.00 | 0.00 | 99 | 1011.8 |
| 20260509100730 | 21 | 153 | 1.6 | 1.6 | 0.00 | 0.00 | 0.00 | 99 | 1011.8 |
| 20260509100228 | 21 | 154 | 0.0 | 1.6 | 0.00 | 0.00 | 0.00 | 99 | 1012.0 |
| 20260509095724 | 21 | 140 | 1.6 | 3.2 | 0.00 | 0.00 | 0.00 | 99 | 1011.7 |
| 20260509095222 | 21 | 170 | 3.2 | 4.8 | 0.00 | 0.00 | 0.00 | 99 | 1011.6 |
| 20260509094719 | 21 | 143 | 4.8 | 4.8 | 0.00 | 0.00 | 0.00 | 99 | 1011.5 |
| 20260509094215 | 21 | 140 | 3.2 | 3.2 | 0.00 | 0.00 | 0.00 | 99 | 1011.6 |
| 20260509093714 | 21 | 185 | 4.8 | 6.4 | 0.00 | 0.00 | 0.00 | 99 | 1011.3 |
| 20260509093210 | 21 | 169 | 3.2 | 3.2 | 0.00 | 0.00 | 0.00 | 99 | 1011.3 |
| 20260509092708 | 21 | 146 | 3.2 | 3.2 | 0.00 | 0.00 | 0.00 | 99 | 1011.6 |
| 20260509092207 | 20 | 156 | 3.2 | 4.8 | 0.00 | 0.00 | 0.00 | 99 | 1011.5 |
| 20260509091704 | 20 | 171 | 3.2 | 4.8 | 0.00 | 0.00 | 0.00 | 99 | 1011.5 |
| 20260509091200 | 20 | 158 | 3.2 | 4.8 | 0.00 | 0.00 | 0.00 | 99 | 1011.4 |
| 20260509090658 | 20 | 186 | 4.8 | 4.8 | 0.00 | 0.00 | 0.00 | 99 | 1011.5 |
| 20260509090155 | 20 | 175 | 3.2 | 4.8 | 0.00 | 0.00 | 0.00 | 99 | 1011.3 |
| 20260509085653 | 20 | 184 | 3.2 | 4.8 | 0.00 | 0.00 | 0.00 | 99 | 1011.4 |
| 20260509085149 | 20 | 187 | 3.2 | 3.2 | 0.00 | 0.00 | 0.00 | 99 | 1011.4 |
| 20260509084646 | 20 | 161 | 1.6 | 3.2 | 0.00 | 0.00 | 0.00 | 99 | 1011.3 |
| 20260509084143 | 20 | 161 | 1.6 | 3.2 | 0.00 | 0.00 | 0.00 | 99 | 1011.3 |
| 20260509083641 | 20 | 172 | 1.6 | 3.2 | 0.00 | 0.00 | 0.00 | 99 | 1011.5 |
| 20260509083137 | 20 | 185 | 1.6 | 3.2 | 0.00 | 0.00 | 0.00 | 99 | 1011.5 |
| 20260509082634 | 20 | 142 | 1.6 | 1.6 | 0.00 | 0.00 | 0.00 | 99 | 1011.5 |
| 20260509082131 | 20 | 158 | 1.6 | 3.2 | 0.00 | 0.00 | 0.00 | 99 | 1011.6 |
| 20260509081628 | 20 | 157 | 1.6 | 1.6 | 0.00 | 0.00 | 0.00 | 99 | 1011.8 |
| 20260509081125 | 20 | 157 | 0.0 | 0.0 | 0.00 | 0.00 | 0.00 | 99 | 1011.9 |
| 20260509080623 | 20 | 158 | 1.6 | 1.6 | 0.00 | 0.00 | 0.00 | 99 | 1012.0 |
| 20260509080121 | 20 | 157 | 1.6 | 4.8 | 0.00 | 0.00 | 0.00 | 99 | 1012.3 |
| 20260509075618 | 20 | 150 | 0.0 | 1.6 | 0.00 | 0.00 | 0.00 | 99 | 1012.4 |
| 20260509075116 | 20 | 258 | 1.6 | 3.2 | 0.00 | 0.00 | 0.00 | 99 | 1012.3 |
| 20260509074612 | 20 | 329 | 1.6 | 1.6 | 0.00 | 0.00 | 0.00 | 99 | 1012.3 |
| 20260509074109 | 20 | 358 | 0.0 | 0.0 | 0.00 | 0.00 | 0.00 | 99 | 1012.2 |
| 20260509073606 | 20 | 358 | 0.0 | 0.0 | 0.00 | 0.00 | 0.00 | 99 | 1012.2 |
| 20260509073102 | 20 | 358 | 0.0 | 0.0 | 0.00 | 0.00 | 0.00 | 99 | 1012.4 |
| 20260509072559 | 20 | 358 | 0.0 | 0.0 | 0.00 | 0.00 | 0.00 | 99 | 1012.5 |
| 20260509072055 | 20 | 358 | 0.0 | 0.0 | 0.00 | 0.00 | 0.00 | 99 | 1012.9 |
| 20260509071552 | 20 | 358 | 0.0 | 0.0 | 0.00 | 0.00 | 0.00 | 99 | 1012.9 |
| 20260509071050 | 20 | 8 | 1.6 | 3.2 | 0.00 | 0.00 | 0.00 | 99 | 1012.9 |
| 20260509070547 | 20 | 140 | 0.0 | 1.6 | 0.00 | 0.00 | 0.00 | 99 | 1012.9 |